createdAt,value
2024-02-03T00:00:55.152Z,14.43
2024-02-03T00:01:59.114Z,15.40
2024-02-03T00:03:03.143Z,14.75
2024-02-03T00:04:07.249Z,14.60
2024-02-03T00:05:11.644Z,15.30
2024-02-03T00:06:15.737Z,15.40
2024-02-03T00:07:19.739Z,15.27
2024-02-03T00:08:23.719Z,13.70
2024-02-03T00:09:27.576Z,15.68
2024-02-03T00:10:32.050Z,14.57
2024-02-03T00:11:36.201Z,14.87
2024-02-03T00:12:40.181Z,14.90
2024-02-03T00:13:44.041Z,15.30
2024-02-03T00:14:49.738Z,15.95
2024-02-03T00:15:56.053Z,14.45
2024-02-03T00:17:00.025Z,14.63
2024-02-03T00:18:04.233Z,14.43
2024-02-03T00:19:08.342Z,15.13
2024-02-03T00:20:13.831Z,14.23
2024-02-03T00:21:18.121Z,15.15
2024-02-03T00:22:22.465Z,14.20
2024-02-03T00:23:26.376Z,15.10
2024-02-03T00:24:30.494Z,13.70
2024-02-03T00:25:34.601Z,13.93
2024-02-03T00:26:38.359Z,15.77
2024-02-03T00:27:42.280Z,13.83
2024-02-03T00:28:47.097Z,13.75
2024-02-03T00:29:52.895Z,14.48
2024-02-03T00:30:56.902Z,14.05
2024-02-03T00:32:00.802Z,14.88
2024-02-03T00:33:04.835Z,15.00
2024-02-03T00:34:08.882Z,14.10
2024-02-03T00:35:12.814Z,15.57
2024-02-03T00:36:23.281Z,14.00
2024-02-03T00:37:27.124Z,15.32
2024-02-03T00:38:31.092Z,13.77
2024-02-03T00:39:34.955Z,13.70
2024-02-03T00:40:38.767Z,13.48
2024-02-03T00:41:42.869Z,14.45
2024-02-03T00:42:46.865Z,14.57
2024-02-03T00:43:50.746Z,14.40
2024-02-03T00:44:56.274Z,14.65
2024-02-03T00:46:00.271Z,15.55
2024-02-03T00:47:04.148Z,13.75
2024-02-03T00:48:09.272Z,14.00
2024-02-03T00:49:13.336Z,14.37
2024-02-03T00:50:17.441Z,14.05
2024-02-03T00:51:21.370Z,14.63
2024-02-03T00:52:25.364Z,13.32
2024-02-03T00:53:29.324Z,13.15
2024-02-03T00:54:33.413Z,14.23
2024-02-03T00:55:37.254Z,13.18
2024-02-03T00:56:41.140Z,13.50
2024-02-03T00:57:45.117Z,14.40
2024-02-03T00:58:49.030Z,14.85
2024-02-03T00:59:55.080Z,15.47
2024-02-03T01:01:04.242Z,14.98
2024-02-03T01:02:10.374Z,14.18
2024-02-03T01:03:14.453Z,14.15
2024-02-03T01:04:18.336Z,13.80
2024-02-03T01:05:22.420Z,14.33
2024-02-03T01:06:26.831Z,13.68
2024-02-03T01:07:31.058Z,14.00
2024-02-03T01:08:35.029Z,14.02
2024-02-03T01:09:39.063Z,14.55
2024-02-03T01:10:43.042Z,14.00
2024-02-03T01:11:47.027Z,13.95
2024-02-03T01:12:51.094Z,15.80
2024-02-03T01:13:55.402Z,14.23
2024-02-03T01:14:59.427Z,13.65
2024-02-03T01:16:05.321Z,15.70
2024-02-03T01:17:09.329Z,15.48
2024-02-03T01:18:13.415Z,15.48
2024-02-03T01:19:17.723Z,14.80
2024-02-03T01:20:21.920Z,15.48
2024-02-03T01:21:25.919Z,15.00
2024-02-03T01:22:30.009Z,15.35
2024-02-03T01:23:34.068Z,14.43
2024-02-03T01:24:38.570Z,14.95
2024-02-03T01:25:42.760Z,15.50
2024-02-03T01:26:46.611Z,15.17
2024-02-03T01:27:50.677Z,15.35
2024-02-03T01:28:59.725Z,14.90
2024-02-03T01:30:03.649Z,14.50
2024-02-03T01:31:10.498Z,14.50
2024-02-03T01:32:15.812Z,14.43
2024-02-03T01:33:19.881Z,14.35
2024-02-03T01:34:24.229Z,14.80
2024-02-03T01:35:28.453Z,14.45
2024-02-03T01:36:35.362Z,15.00
2024-02-03T01:37:42.959Z,15.00
2024-02-03T01:38:49.095Z,15.55
2024-02-03T01:39:53.032Z,15.93
2024-02-03T01:40:57.000Z,14.50
2024-02-03T01:42:00.984Z,14.27
2024-02-03T01:43:05.102Z,13.60
2024-02-03T01:44:09.380Z,14.50
2024-02-03T01:45:13.293Z,15.02
2024-02-03T01:46:19.911Z,14.20
2024-02-03T01:47:24.315Z,14.27
2024-02-03T01:48:28.638Z,14.93
2024-02-03T01:49:33.966Z,14.45
2024-02-03T01:50:43.107Z,14.48
2024-02-03T01:51:47.093Z,15.07
2024-02-03T01:52:52.418Z,14.40
2024-02-03T01:53:57.290Z,13.43
2024-02-03T01:55:01.411Z,13.77
2024-02-03T01:56:05.754Z,14.40
2024-02-03T01:57:11.196Z,13.77
2024-02-03T01:58:17.901Z,14.30
2024-02-03T01:59:22.284Z,14.27
2024-02-03T02:00:26.436Z,14.27
2024-02-03T02:01:33.438Z,14.32
2024-02-03T02:02:37.191Z,14.35
2024-02-03T02:03:41.516Z,14.77
2024-02-03T02:04:46.143Z,14.53
2024-02-03T02:05:57.811Z,15.02
2024-02-03T02:07:01.785Z,15.20
2024-02-03T02:08:06.169Z,14.25
2024-02-03T02:09:10.158Z,15.18
2024-02-03T02:10:17.208Z,15.40
2024-02-03T02:11:21.131Z,14.70
2024-02-03T02:12:27.740Z,13.90
2024-02-03T02:13:32.262Z,15.32
2024-02-03T02:14:36.610Z,15.10
2024-02-03T02:15:40.609Z,14.87
2024-02-03T02:16:46.522Z,14.25
2024-02-03T02:17:57.426Z,14.60
2024-02-03T02:19:01.658Z,14.25
2024-02-03T02:20:09.212Z,14.15
2024-02-03T02:21:13.157Z,14.07
2024-02-03T02:22:16.995Z,14.18
2024-02-03T02:23:20.995Z,13.20
2024-02-03T02:24:25.361Z,15.32
2024-02-03T02:25:29.224Z,15.23
2024-02-03T02:26:33.119Z,14.83
2024-02-03T02:27:37.131Z,15.55
2024-02-03T02:28:41.159Z,14.60
2024-02-03T02:29:45.078Z,14.13
2024-02-03T02:30:49.511Z,14.65
2024-02-03T02:31:53.432Z,13.67
2024-02-03T02:32:57.345Z,14.07
2024-02-03T02:34:01.392Z,14.05
2024-02-03T02:35:07.483Z,13.48
2024-02-03T02:36:11.733Z,14.00
2024-02-03T02:37:15.673Z,12.73
2024-02-03T02:38:19.950Z,13.50
2024-02-03T02:39:24.587Z,13.55
2024-02-03T02:40:28.940Z,13.63
2024-02-03T02:41:35.379Z,14.63
2024-02-03T02:42:39.245Z,13.47
2024-02-03T02:43:43.162Z,13.57
2024-02-03T02:44:47.043Z,13.63
2024-02-03T02:45:51.155Z,13.60
2024-02-03T02:46:55.166Z,14.80
2024-02-03T02:47:59.187Z,14.73
2024-02-03T02:49:03.490Z,14.23
2024-02-03T02:50:10.197Z,14.63
2024-02-03T02:51:15.201Z,14.15
2024-02-03T02:52:19.120Z,14.60
2024-02-03T02:53:23.021Z,14.83
2024-02-03T02:54:27.043Z,14.63
2024-02-03T02:55:30.944Z,13.80
2024-02-03T02:56:34.823Z,14.20
2024-02-03T02:57:38.679Z,14.23
2024-02-03T02:58:42.701Z,13.20
2024-02-03T02:59:46.671Z,14.65
2024-02-03T03:00:50.834Z,13.95
2024-02-03T03:01:54.828Z,14.88
2024-02-03T03:02:58.557Z,12.88
2024-02-03T03:04:02.502Z,14.00
2024-02-03T03:05:09.020Z,13.80
2024-02-03T03:06:12.980Z,13.75
2024-02-03T03:07:16.826Z,15.23
2024-02-03T03:08:20.728Z,13.98
2024-02-03T03:09:24.709Z,14.03
2024-02-03T03:10:28.541Z,14.27
2024-02-03T03:11:32.502Z,14.30
2024-02-03T03:12:36.375Z,13.75
2024-02-03T03:13:40.278Z,15.50
2024-02-03T03:14:44.333Z,14.33
2024-02-03T03:15:48.343Z,13.32
2024-02-03T03:16:52.821Z,13.02
2024-02-03T03:17:56.835Z,14.27
2024-02-03T03:19:00.833Z,13.77
2024-02-03T03:20:05.272Z,13.80
2024-02-03T03:21:11.331Z,13.30
2024-02-03T03:22:15.176Z,13.88
2024-02-03T03:23:19.035Z,13.13
2024-02-03T03:24:22.880Z,13.38
2024-02-03T03:25:26.824Z,13.93
2024-02-03T03:26:30.841Z,14.02
2024-02-03T03:27:34.732Z,13.65
2024-02-03T03:28:38.673Z,13.25
2024-02-03T03:29:43.502Z,13.60
2024-02-03T03:30:47.399Z,13.57
2024-02-03T03:31:51.310Z,13.38
2024-02-03T03:32:55.282Z,13.88
2024-02-03T03:33:59.390Z,14.30
2024-02-03T03:35:03.278Z,14.77
2024-02-03T03:36:09.588Z,14.33
2024-02-03T03:37:13.511Z,14.63
2024-02-03T03:38:17.305Z,13.27
2024-02-03T03:39:21.171Z,16.45
2024-02-03T03:40:25.031Z,14.60
2024-02-03T03:41:28.936Z,14.17
2024-02-03T03:42:32.733Z,14.95
2024-02-03T03:43:36.587Z,14.73
2024-02-03T03:44:40.543Z,13.70
2024-02-03T03:45:44.377Z,15.27
2024-02-03T03:46:48.423Z,13.20
2024-02-03T03:47:52.433Z,14.35
2024-02-03T03:48:56.555Z,13.30
2024-02-03T03:50:00.560Z,15.88
2024-02-03T03:51:04.457Z,13.93
2024-02-03T03:52:10.058Z,14.37
2024-02-03T03:53:13.956Z,15.23
2024-02-03T03:54:17.809Z,14.25
2024-02-03T03:55:21.583Z,13.73
2024-02-03T03:56:25.345Z,14.30
2024-02-03T03:57:29.329Z,15.00
2024-02-03T03:58:33.354Z,15.30
2024-02-03T03:59:37.211Z,13.80
2024-02-03T04:00:41.187Z,13.65
2024-02-03T04:01:50.091Z,13.90
2024-02-03T04:02:53.997Z,13.97
2024-02-03T04:03:57.899Z,14.02
2024-02-03T04:05:01.736Z,14.15
2024-02-03T04:06:05.740Z,14.13
2024-02-03T04:07:11.235Z,14.60
2024-02-03T04:08:15.120Z,13.27
2024-02-03T04:09:19.070Z,13.90
2024-02-03T04:10:22.902Z,13.88
2024-02-03T04:11:26.817Z,13.10
2024-02-03T04:12:30.694Z,13.98
2024-02-03T04:13:34.731Z,13.60
2024-02-03T04:14:38.560Z,12.80
2024-02-03T04:15:42.488Z,13.07
2024-02-03T04:16:46.233Z,13.98
2024-02-03T04:17:50.106Z,13.50
2024-02-03T04:18:54.323Z,13.80
2024-02-03T04:19:58.502Z,14.73
2024-02-03T04:21:02.346Z,13.90
2024-02-03T04:22:06.419Z,13.77
2024-02-03T04:23:11.775Z,13.68
2024-02-03T04:24:15.646Z,14.40
2024-02-03T04:25:19.558Z,14.63
2024-02-03T04:26:23.526Z,14.45
2024-02-03T04:27:27.481Z,13.90
2024-02-03T04:28:31.303Z,15.82
2024-02-03T04:29:35.098Z,13.80
2024-02-03T04:30:39.208Z,14.68
2024-02-03T04:31:43.669Z,14.07
2024-02-03T04:32:47.666Z,14.38
2024-02-03T04:33:51.713Z,14.98
2024-02-03T04:34:55.466Z,14.87
2024-02-03T04:35:59.250Z,14.20
2024-02-03T04:37:02.965Z,14.18
2024-02-03T04:38:07.022Z,14.82
2024-02-03T04:39:12.616Z,14.30
2024-02-03T04:40:16.397Z,14.33
2024-02-03T04:41:26.746Z,14.27
2024-02-03T04:42:30.491Z,14.35
2024-02-03T04:43:34.286Z,13.77
2024-02-03T04:44:38.125Z,14.30
2024-02-03T04:45:41.936Z,13.87
2024-02-03T04:46:48.745Z,14.65
2024-02-03T04:47:53.104Z,14.60
2024-02-03T04:48:57.179Z,14.63
2024-02-03T04:50:01.277Z,13.57
2024-02-03T04:51:05.647Z,14.47
2024-02-03T04:52:09.447Z,13.80
2024-02-03T04:53:14.254Z,12.75
2024-02-03T04:54:19.630Z,12.88
2024-02-03T04:55:23.709Z,12.88
2024-02-03T04:56:27.522Z,13.00
2024-02-03T04:57:31.363Z,14.02
2024-02-03T04:58:35.349Z,13.75
2024-02-03T04:59:39.084Z,13.65
2024-02-03T05:00:43.037Z,13.38
2024-02-03T05:01:46.881Z,13.53
2024-02-03T05:02:50.754Z,14.13
2024-02-03T05:03:54.711Z,13.02
2024-02-03T05:04:58.635Z,13.45
2024-02-03T05:06:06.276Z,12.88
2024-02-03T05:07:10.185Z,13.60
2024-02-03T05:08:13.945Z,13.38
2024-02-03T05:09:19.348Z,13.40
2024-02-03T05:10:23.078Z,14.02
2024-02-03T05:11:26.984Z,13.05
2024-02-03T05:12:30.770Z,14.17
2024-02-03T05:13:34.617Z,13.23
2024-02-03T05:14:38.396Z,12.60
2024-02-03T05:15:42.336Z,13.77
2024-02-03T05:16:46.140Z,13.02
2024-02-03T05:17:50.003Z,12.93
2024-02-03T05:18:53.974Z,13.27
2024-02-03T05:19:57.847Z,13.38
2024-02-03T05:21:01.653Z,13.98
2024-02-03T05:22:06.085Z,13.65
2024-02-03T05:23:09.874Z,13.30
2024-02-03T05:24:13.744Z,13.25
2024-02-03T05:25:19.254Z,13.07
2024-02-03T05:26:23.057Z,13.55
2024-02-03T05:27:27.055Z,12.65
2024-02-03T05:28:30.880Z,12.47
2024-02-03T05:29:34.708Z,12.95
2024-02-03T05:30:38.737Z,14.43
2024-02-03T05:31:42.622Z,14.50
2024-02-03T05:32:47.097Z,13.48
2024-02-03T05:33:51.329Z,13.77
2024-02-03T05:34:55.233Z,12.63
2024-02-03T05:35:59.118Z,12.98
2024-02-03T05:37:02.854Z,13.40
2024-02-03T05:38:06.841Z,13.20
2024-02-03T05:39:10.901Z,13.60
2024-02-03T05:40:16.451Z,13.23
2024-02-03T05:41:22.026Z,14.13
2024-02-03T05:42:25.893Z,13.07
2024-02-03T05:43:29.747Z,13.82
2024-02-03T05:44:33.768Z,13.57
2024-02-03T05:45:37.616Z,12.90
2024-02-03T05:46:41.449Z,13.30
2024-02-03T05:47:45.597Z,13.35
2024-02-03T05:48:49.452Z,13.65
2024-02-03T05:49:53.624Z,13.63
2024-02-03T05:50:57.387Z,12.90
2024-02-03T05:52:01.204Z,14.02
2024-02-03T05:53:06.287Z,13.40
2024-02-03T05:54:11.446Z,12.90
2024-02-03T05:55:15.353Z,13.07
2024-02-03T05:56:20.804Z,13.00
2024-02-03T05:57:24.683Z,13.23
2024-02-03T05:58:28.459Z,13.38
2024-02-03T05:59:36.214Z,12.85
2024-02-03T06:00:45.638Z,12.53
2024-02-03T06:01:49.550Z,12.88
2024-02-03T06:02:53.463Z,12.95
2024-02-03T06:03:57.425Z,13.35
2024-02-03T06:05:01.368Z,12.70
2024-02-03T06:06:19.572Z,13.67
2024-02-03T06:07:29.202Z,13.18
2024-02-03T06:08:32.956Z,13.23
2024-02-03T06:09:36.871Z,13.30
2024-02-03T06:10:40.720Z,13.60
2024-02-03T06:11:46.234Z,13.53
2024-02-03T06:12:50.120Z,13.95
2024-02-03T06:13:53.886Z,13.40
2024-02-03T06:14:57.607Z,13.30
2024-02-03T06:16:01.343Z,13.13
2024-02-03T06:17:05.442Z,13.70
2024-02-03T06:18:09.627Z,13.52
2024-02-03T06:19:13.769Z,13.23
2024-02-03T06:20:17.711Z,13.95
2024-02-03T06:21:21.509Z,12.98
2024-02-03T06:22:25.472Z,12.67
2024-02-03T06:23:29.239Z,13.65
2024-02-03T06:24:34.476Z,14.07
2024-02-03T06:25:39.395Z,14.52
2024-02-03T06:26:45.832Z,14.05
2024-02-03T06:27:49.570Z,15.13
2024-02-03T06:28:53.571Z,13.25
2024-02-03T06:29:57.463Z,13.68
2024-02-03T06:31:01.314Z,13.48
2024-02-03T06:32:05.480Z,13.98
2024-02-03T06:33:09.469Z,13.00
2024-02-03T06:34:13.353Z,12.90
2024-02-03T06:35:17.319Z,13.90
2024-02-03T06:36:21.091Z,13.65
2024-02-03T06:37:24.781Z,13.80
2024-02-03T06:38:29.038Z,13.33
2024-02-03T06:39:32.927Z,13.50
2024-02-03T06:40:36.856Z,13.77
2024-02-03T06:41:40.594Z,12.70
2024-02-03T06:42:46.159Z,13.00
2024-02-03T06:43:49.962Z,13.90
2024-02-03T06:44:53.694Z,13.52
2024-02-03T06:45:57.572Z,14.00
2024-02-03T06:47:01.284Z,13.18
2024-02-03T06:48:05.628Z,13.07
2024-02-03T06:49:09.605Z,13.57
2024-02-03T06:50:13.653Z,12.85
2024-02-03T06:51:17.477Z,13.25
2024-02-03T06:52:21.286Z,13.18
2024-02-03T06:53:25.031Z,13.57
2024-02-03T06:54:28.939Z,12.57
2024-02-03T06:55:32.831Z,12.98
2024-02-03T06:56:36.763Z,13.45
2024-02-03T06:57:40.581Z,13.75
2024-02-03T06:58:46.090Z,13.52
2024-02-03T06:59:51.280Z,13.63
2024-02-03T07:00:55.245Z,13.55
2024-02-03T07:01:59.182Z,13.25
2024-02-03T07:03:03.183Z,12.93
2024-02-03T07:04:07.247Z,13.27
2024-02-03T07:05:11.484Z,13.77
2024-02-03T07:06:15.400Z,12.10
2024-02-03T07:07:19.400Z,13.07
2024-02-03T07:08:23.204Z,13.05
2024-02-03T07:09:27.181Z,13.63
2024-02-03T07:10:30.993Z,13.53
2024-02-03T07:11:34.801Z,12.90
2024-02-03T07:12:38.659Z,12.95
2024-02-03T07:13:42.580Z,12.25
2024-02-03T07:14:48.111Z,13.88
2024-02-03T07:15:52.775Z,12.33
2024-02-03T07:16:56.750Z,12.80
2024-02-03T07:18:00.707Z,12.25
2024-02-03T07:19:04.636Z,12.70
2024-02-03T07:20:09.550Z,13.30
2024-02-03T07:21:13.347Z,12.57
2024-02-03T07:22:17.210Z,13.35
2024-02-03T07:23:21.070Z,13.15
2024-02-03T07:24:26.705Z,12.35
2024-02-03T07:25:30.602Z,13.57
2024-02-03T07:26:34.596Z,13.90
2024-02-03T07:27:38.552Z,13.35
2024-02-03T07:28:42.470Z,13.07
2024-02-03T07:29:47.957Z,13.25
2024-02-03T07:30:51.816Z,12.75
2024-02-03T07:32:01.265Z,13.63
2024-02-03T07:33:05.310Z,13.35
2024-02-03T07:34:09.292Z,13.10
2024-02-03T07:35:13.954Z,13.40
2024-02-03T07:36:18.119Z,12.60
2024-02-03T07:37:21.952Z,12.40
2024-02-03T07:38:25.848Z,13.30
2024-02-03T07:39:29.781Z,12.82
2024-02-03T07:40:33.972Z,12.93
2024-02-03T07:41:38.008Z,13.30
2024-02-03T07:42:43.068Z,13.20
2024-02-03T07:43:47.147Z,13.20
2024-02-03T07:44:52.733Z,12.90
2024-02-03T07:45:56.684Z,12.52
2024-02-03T07:47:00.508Z,12.85
2024-02-03T07:48:06.958Z,13.07
2024-02-03T07:49:11.368Z,13.25
2024-02-03T07:50:15.597Z,12.05
2024-02-03T07:51:19.993Z,11.63
2024-02-03T07:52:24.012Z,12.48
2024-02-03T07:53:27.872Z,13.00
2024-02-03T07:54:32.049Z,13.18
2024-02-03T07:55:35.859Z,12.52
2024-02-03T07:56:39.713Z,11.82
2024-02-03T07:57:43.628Z,12.45
2024-02-03T07:58:47.938Z,12.70
2024-02-03T07:59:53.432Z,12.45
2024-02-03T08:00:58.568Z,13.15
2024-02-03T08:02:02.978Z,12.25
2024-02-03T08:03:06.887Z,12.40
2024-02-03T08:04:10.771Z,11.83
2024-02-03T08:05:14.878Z,12.10
2024-02-03T08:06:18.985Z,12.23
2024-02-03T08:07:22.867Z,12.45
2024-02-03T08:08:26.668Z,12.55
2024-02-03T08:09:30.534Z,12.90
2024-02-03T08:10:34.327Z,12.27
2024-02-03T08:11:38.127Z,12.73
2024-02-03T08:12:41.932Z,12.55
2024-02-03T08:13:46.008Z,12.02
2024-02-03T08:14:49.835Z,11.60
2024-02-03T08:15:55.576Z,12.30
2024-02-03T08:16:59.413Z,12.32
2024-02-03T08:18:03.288Z,12.27
2024-02-03T08:19:07.343Z,12.07
2024-02-03T08:20:12.199Z,12.50
2024-02-03T08:21:16.243Z,11.80
2024-02-03T08:22:20.283Z,12.82
2024-02-03T08:23:24.012Z,11.23
2024-02-03T08:24:27.909Z,11.95
2024-02-03T08:25:31.652Z,12.23
2024-02-03T08:26:35.474Z,11.95
2024-02-03T08:27:39.317Z,11.75
2024-02-03T08:28:43.591Z,11.90
2024-02-03T08:29:47.464Z,13.02
2024-02-03T08:30:51.448Z,11.87
2024-02-03T08:31:57.149Z,12.05
2024-02-03T08:33:01.025Z,12.18
2024-02-03T08:34:05.139Z,12.57
2024-02-03T08:36:16.237Z,12.87
2024-02-03T08:37:20.189Z,12.48
2024-02-03T08:38:24.048Z,12.20
2024-02-03T08:40:34.459Z,12.38
2024-02-03T08:41:38.238Z,12.37
2024-02-03T08:42:42.034Z,12.70
2024-02-03T08:43:46.056Z,12.88
2024-02-03T08:44:49.837Z,11.85
2024-02-03T08:45:53.805Z,11.70
2024-02-03T08:46:59.323Z,11.67
2024-02-03T08:48:03.323Z,12.07
2024-02-03T08:49:07.313Z,12.57
2024-02-03T08:50:12.103Z,11.68
2024-02-03T08:51:19.258Z,12.20
2024-02-03T08:52:23.128Z,12.30
2024-02-03T08:53:27.011Z,12.60
2024-02-03T08:54:30.806Z,12.52
2024-02-03T08:55:34.640Z,11.43
2024-02-03T08:56:38.427Z,12.80
2024-02-03T08:57:42.297Z,12.23
2024-02-03T08:58:46.278Z,11.73
2024-02-03T08:59:50.520Z,11.93
2024-02-03T09:00:54.544Z,12.00
2024-02-03T09:02:00.488Z,11.73
2024-02-03T09:03:04.372Z,12.00
2024-02-03T09:04:08.600Z,11.80
2024-02-03T09:05:12.500Z,11.40
2024-02-03T09:06:16.354Z,11.32
2024-02-03T09:07:20.299Z,12.40
2024-02-03T09:08:24.035Z,12.07
2024-02-03T09:09:27.824Z,12.32
2024-02-03T09:10:31.682Z,12.10
2024-02-03T09:11:35.424Z,12.23
2024-02-03T09:12:39.307Z,11.75
2024-02-03T09:13:43.286Z,12.50
2024-02-03T09:14:47.143Z,11.45
2024-02-03T09:15:50.911Z,12.15
2024-02-03T09:16:54.752Z,11.80
2024-02-03T09:18:00.392Z,12.27
2024-02-03T09:19:04.621Z,12.10
2024-02-03T09:20:09.536Z,12.15
2024-02-03T09:21:13.538Z,11.77
2024-02-03T09:22:17.615Z,11.95
2024-02-03T09:23:21.388Z,11.13
2024-02-03T09:24:25.556Z,12.17
2024-02-03T09:25:29.380Z,12.07
2024-02-03T09:26:33.151Z,12.15
2024-02-03T09:27:37.015Z,12.23
2024-02-03T09:28:41.632Z,12.13
2024-02-03T09:29:45.685Z,12.50
2024-02-03T09:30:49.677Z,12.05
2024-02-03T09:31:56.598Z,11.52
2024-02-03T09:33:03.445Z,11.70
2024-02-03T09:34:07.711Z,11.70
2024-02-03T09:35:11.926Z,11.97
2024-02-03T09:36:15.836Z,11.77
2024-02-03T09:38:28.777Z,11.75
2024-02-03T09:39:32.649Z,11.75
2024-02-03T09:40:36.706Z,12.83
2024-02-03T09:41:40.699Z,12.30
2024-02-03T09:42:44.647Z,11.70
2024-02-03T09:43:50.356Z,12.32
2024-02-03T09:44:54.583Z,11.15
2024-02-03T09:45:59.610Z,11.43
2024-02-03T09:47:04.843Z,12.25
2024-02-03T09:48:10.531Z,12.30
2024-02-03T09:49:14.578Z,12.23
2024-02-03T09:50:18.522Z,11.73
2024-02-03T09:51:22.590Z,11.97
2024-02-03T09:52:27.353Z,11.63
2024-02-03T09:53:31.468Z,12.55
2024-02-03T09:54:35.905Z,11.77
2024-02-03T09:55:39.868Z,11.82
2024-02-03T09:56:47.011Z,12.10
2024-02-03T09:57:52.047Z,11.60
2024-02-03T09:58:55.800Z,11.40
2024-02-03T10:00:00.150Z,11.90
2024-02-03T10:01:04.443Z,11.77
2024-02-03T10:02:08.874Z,12.00
2024-02-03T10:03:19.376Z,11.95
2024-02-03T10:04:24.783Z,11.73
2024-02-03T10:05:30.362Z,12.02
2024-02-03T10:06:34.323Z,11.65
2024-02-03T10:07:38.210Z,12.47
2024-02-03T10:08:51.112Z,12.35
2024-02-03T10:11:11.701Z,12.43
2024-02-03T10:12:22.870Z,12.52
2024-02-03T10:13:26.852Z,12.70
2024-02-03T10:14:30.838Z,12.57
2024-02-03T10:15:34.599Z,12.13
2024-02-03T10:16:47.797Z,11.95
2024-02-03T10:17:57.934Z,11.75
2024-02-03T10:19:05.271Z,11.43
2024-02-03T10:20:10.626Z,12.38
2024-02-03T10:21:14.467Z,11.70
2024-02-03T10:22:18.518Z,11.85
2024-02-03T10:23:22.655Z,10.90
2024-02-03T10:24:26.937Z,11.70
2024-02-03T10:25:30.833Z,12.45
2024-02-03T10:26:35.124Z,12.52
2024-02-03T10:27:39.528Z,11.65
2024-02-03T10:28:43.988Z,11.80
2024-02-03T10:29:54.903Z,11.50
2024-02-03T10:31:04.970Z,11.80
2024-02-03T10:32:09.051Z,11.90
2024-02-03T10:33:13.199Z,11.23
2024-02-03T10:34:20.039Z,12.13
2024-02-03T10:35:24.365Z,12.07
2024-02-03T10:36:28.241Z,11.95
2024-02-03T10:37:32.271Z,11.15
2024-02-03T10:38:36.202Z,11.60
2024-02-03T10:39:40.243Z,11.82
2024-02-03T10:40:44.250Z,11.60
2024-02-03T10:41:49.559Z,10.93
2024-02-03T10:42:55.755Z,12.30
2024-02-03T10:44:04.752Z,12.50
2024-02-03T10:45:12.984Z,11.75
2024-02-03T10:46:21.086Z,12.33
2024-02-03T10:47:25.354Z,11.93
2024-02-03T10:48:30.752Z,10.82
2024-02-03T10:49:37.455Z,12.85
2024-02-03T10:50:43.457Z,11.98
2024-02-03T10:51:49.885Z,12.47
2024-02-03T10:52:58.391Z,12.90
2024-02-03T10:54:05.185Z,11.30
2024-02-03T10:55:13.567Z,12.82
2024-02-03T10:56:20.194Z,12.82
2024-02-03T10:57:25.316Z,12.60
2024-02-03T10:58:30.924Z,12.02
2024-02-03T10:59:35.161Z,11.25
2024-02-03T11:00:39.070Z,11.48
2024-02-03T11:01:42.918Z,10.65
2024-02-03T11:02:53.508Z,11.73
2024-02-03T11:03:57.283Z,12.13
2024-02-03T11:05:03.661Z,12.00
2024-02-03T11:06:08.481Z,12.38
2024-02-03T11:07:22.910Z,12.65
2024-02-03T11:08:26.665Z,11.93
2024-02-03T11:09:31.371Z,12.35
2024-02-03T11:10:38.536Z,13.15
2024-02-03T11:11:42.700Z,11.75
2024-02-03T11:12:46.673Z,11.85
2024-02-03T11:13:50.486Z,11.30
2024-02-03T11:14:59.065Z,13.27
2024-02-03T11:16:02.950Z,12.63
2024-02-03T11:17:09.139Z,11.93
2024-02-03T11:18:15.158Z,12.18
2024-02-03T11:19:26.938Z,11.97
2024-02-03T11:20:33.661Z,12.52
2024-02-03T11:21:43.214Z,12.52
2024-02-03T11:22:52.236Z,11.68
2024-02-03T11:23:56.007Z,11.85
2024-02-03T11:25:09.851Z,12.27
2024-02-03T11:26:13.779Z,11.70
2024-02-03T11:27:17.583Z,12.10
2024-02-03T11:28:21.400Z,11.48
2024-02-03T11:29:25.755Z,12.00
2024-02-03T11:30:29.507Z,12.50
2024-02-03T11:31:33.583Z,12.45
2024-02-03T11:32:37.567Z,11.55
2024-02-03T11:33:45.694Z,11.32
2024-02-03T11:34:49.730Z,12.32
2024-02-03T11:36:01.673Z,11.80
2024-02-03T11:37:06.379Z,11.52
2024-02-03T11:38:10.515Z,12.68
2024-02-03T11:39:14.395Z,11.80
2024-02-03T11:40:18.570Z,13.85
2024-02-03T11:41:22.319Z,12.17
2024-02-03T11:42:26.157Z,12.23
2024-02-03T11:43:30.689Z,12.60
2024-02-03T11:44:38.123Z,12.10
2024-02-03T11:45:45.827Z,13.18
2024-02-03T11:46:50.559Z,13.43
2024-02-03T11:47:54.447Z,12.02
2024-02-03T11:48:58.682Z,12.25
2024-02-03T11:50:03.049Z,11.93
2024-02-03T11:51:09.024Z,13.73
2024-02-03T11:52:12.840Z,12.57
2024-02-03T11:53:24.603Z,12.18
2024-02-03T11:54:28.933Z,11.60
2024-02-03T11:55:33.038Z,11.88
2024-02-03T11:56:36.850Z,12.20
2024-02-03T11:57:40.984Z,12.53
2024-02-03T11:58:45.086Z,12.23
2024-02-03T11:59:49.215Z,11.27
2024-02-03T12:01:03.732Z,12.35
2024-02-03T12:02:07.591Z,11.77
2024-02-03T12:03:12.342Z,11.90
2024-02-03T12:04:16.292Z,12.07
2024-02-03T12:05:20.638Z,12.20
2024-02-03T12:06:26.628Z,13.88
2024-02-03T12:07:31.096Z,13.15
2024-02-03T12:08:35.425Z,12.60
2024-02-03T12:09:39.436Z,13.15
2024-02-03T12:10:43.402Z,11.90
2024-02-03T12:11:48.053Z,12.38
2024-02-03T12:12:51.926Z,12.50
2024-02-03T12:13:55.775Z,12.63
2024-02-03T12:15:03.447Z,13.35
2024-02-03T12:16:09.216Z,12.85
2024-02-03T12:17:13.030Z,12.43
2024-02-03T12:18:19.903Z,12.98
2024-02-03T12:19:26.471Z,11.77
2024-02-03T12:20:31.179Z,12.30
2024-02-03T12:21:36.918Z,12.13
2024-02-03T12:22:41.098Z,11.75
2024-02-03T12:23:45.136Z,12.75
2024-02-03T12:24:49.302Z,11.93
2024-02-03T12:25:53.467Z,11.88
2024-02-03T12:26:57.649Z,12.13
2024-02-03T12:28:02.494Z,13.23
2024-02-03T12:29:06.517Z,13.30
2024-02-03T12:30:17.788Z,12.30
2024-02-03T12:31:21.744Z,13.40
2024-02-03T12:32:25.996Z,12.25
2024-02-03T12:33:30.106Z,13.27
2024-02-03T12:34:34.255Z,11.70
2024-02-03T12:35:38.110Z,12.53
2024-02-03T12:36:44.387Z,12.75
2024-02-03T12:37:48.346Z,12.43
2024-02-03T12:38:52.532Z,13.13
2024-02-03T12:39:56.608Z,12.73
2024-02-03T12:41:00.642Z,13.30
2024-02-03T12:42:04.577Z,11.95
2024-02-03T12:43:08.484Z,12.18
2024-02-03T12:44:12.367Z,11.00
2024-02-03T12:45:16.416Z,11.38
2024-02-03T12:46:20.281Z,11.00
2024-02-03T12:47:24.192Z,11.75
2024-02-03T12:48:28.571Z,11.82
2024-02-03T12:49:32.646Z,11.48
2024-02-03T12:50:36.984Z,11.52
2024-02-03T12:51:42.607Z,11.47
2024-02-03T12:52:46.459Z,12.90
2024-02-03T12:53:50.606Z,12.70
2024-02-03T12:54:54.429Z,12.57
2024-02-03T12:55:58.727Z,12.68
2024-02-03T12:57:02.713Z,12.10
2024-02-03T12:58:06.872Z,13.43
2024-02-03T12:59:10.654Z,12.60
2024-02-03T13:00:15.603Z,11.18
2024-02-03T13:01:19.828Z,11.90
2024-02-03T13:02:23.760Z,11.90
2024-02-03T13:03:27.822Z,13.15
2024-02-03T13:04:31.642Z,12.93
2024-02-03T13:05:35.562Z,11.40
2024-02-03T13:06:39.419Z,11.55
2024-02-03T13:07:44.940Z,11.97
2024-02-03T13:08:48.730Z,12.45
2024-02-03T13:09:52.557Z,11.80
2024-02-03T13:10:56.373Z,11.57
2024-02-03T13:12:00.491Z,11.70
2024-02-03T13:13:04.464Z,11.63
2024-02-03T13:14:08.205Z,11.88
2024-02-03T13:15:12.113Z,11.73
2024-02-03T13:16:16.238Z,11.70
2024-02-03T13:17:20.001Z,12.07
2024-02-03T13:18:23.767Z,11.90
2024-02-03T13:19:30.052Z,12.35
2024-02-03T13:20:33.904Z,12.20
2024-02-03T13:21:37.717Z,12.60
2024-02-03T13:22:41.556Z,11.55
2024-02-03T13:23:47.215Z,12.37
2024-02-03T13:24:50.940Z,12.02
2024-02-03T13:25:54.756Z,12.13
2024-02-03T13:26:58.713Z,12.63
2024-02-03T13:28:02.872Z,12.73
2024-02-03T13:29:06.779Z,12.00
2024-02-03T13:30:11.237Z,11.98
2024-02-03T13:31:15.220Z,12.43
2024-02-03T13:32:19.020Z,12.00
2024-02-03T13:33:22.944Z,12.00
2024-02-03T13:34:27.171Z,12.30
2024-02-03T13:35:31.041Z,12.43
2024-02-03T13:36:35.079Z,12.25
2024-02-03T13:37:39.230Z,12.20
2024-02-03T13:38:43.883Z,13.45
2024-02-03T13:39:49.709Z,11.33
2024-02-03T13:40:53.695Z,11.48
2024-02-03T13:41:57.505Z,13.25
2024-02-03T13:43:01.395Z,12.20
2024-02-03T13:44:05.252Z,12.68
2024-02-03T13:45:09.544Z,14.23
2024-02-03T13:46:13.476Z,13.13
2024-02-03T13:47:17.335Z,12.98
2024-02-03T13:48:21.379Z,13.00
2024-02-03T13:49:25.276Z,12.75
2024-02-03T13:50:29.066Z,12.83
2024-02-03T13:51:33.229Z,12.43
2024-02-03T13:52:37.073Z,13.40
2024-02-03T13:53:41.028Z,11.55
2024-02-03T13:54:44.910Z,12.35
2024-02-03T13:55:50.408Z,11.67
2024-02-03T13:56:54.408Z,11.52